sensor_id;sensor_type;location;lat;lon;timestamp;pressure;altitude;pressure_sealevel;temperature;humidity
12624;BME280;6377;42.836;23.998;2023-05-16T00:01:31;95129.31;;;19.01;95.87
12624;BME280;6377;42.836;23.998;2023-05-16T00:04:00;95239.44;;;19.78;97.23
12624;BME280;6377;42.836;23.998;2023-05-16T00:06:28;95238.28;;;19.74;97.04
12624;BME280;6377;42.836;23.998;2023-05-16T00:08:56;95218.97;;;19.72;96.94
12624;BME280;6377;42.836;23.998;2023-05-16T00:11:25;95218.13;;;19.72;94.77
12624;BME280;6377;42.836;23.998;2023-05-16T00:13:53;95207.16;;;19.56;94.65
12624;BME280;6377;42.836;23.998;2023-05-16T00:16:20;95229.50;;;19.79;90.02
12624;BME280;6377;42.836;23.998;2023-05-16T00:18:50;95240.00;;;19.80;91.19
12624;BME280;6377;42.836;23.998;2023-05-16T00:21:18;95203.34;;;19.52;90.96
12624;BME280;6377;42.836;23.998;2023-05-16T00:23:46;95214.31;;;19.84;89.28
12624;BME280;6377;42.836;23.998;2023-05-16T00:26:13;95254.13;;;19.92;87.93
12624;BME280;6377;42.836;23.998;2023-05-16T00:28:42;95223.38;;;20.00;85.93
12624;BME280;6377;42.836;23.998;2023-05-16T00:31:09;95119.31;;;19.30;88.20
12624;BME280;6377;42.836;23.998;2023-05-16T00:33:37;95128.94;;;19.43;82.25
12624;BME280;6377;42.836;23.998;2023-05-16T00:36:04;95245.50;;;20.07;83.85
12624;BME280;6377;42.836;23.998;2023-05-16T00:38:31;95208.84;;;19.96;85.88
12624;BME280;6377;42.836;23.998;2023-05-16T00:40:58;95220.44;;;20.01;85.26
12624;BME280;6377;42.836;23.998;2023-05-16T00:43:26;95215.47;;;19.93;87.32
12624;BME280;6377;42.836;23.998;2023-05-16T00:45:54;95132.88;;;19.40;84.90
12624;BME280;6377;42.836;23.998;2023-05-16T00:48:23;95180.03;;;19.70;83.46
12624;BME280;6377;42.836;23.998;2023-05-16T00:50:50;95180.97;;;19.80;84.82
12624;BME280;6377;42.836;23.998;2023-05-16T00:53:18;95209.63;;;19.96;82.85
12624;BME280;6377;42.836;23.998;2023-05-16T00:55:46;95186.16;;;19.87;89.51
12624;BME280;6377;42.836;23.998;2023-05-16T00:58:14;95161.97;;;19.32;100.00
12624;BME280;6377;42.836;23.998;2023-05-16T01:00:43;95187.78;;;19.38;100.00
12624;BME280;6377;42.836;23.998;2023-05-16T01:03:13;95178.13;;;19.20;100.00
12624;BME280;6377;42.836;23.998;2023-05-16T01:05:40;95197.69;;;18.87;100.00
12624;BME280;6377;42.836;23.998;2023-05-16T01:08:08;95192.25;;;18.42;100.00
12624;BME280;6377;42.836;23.998;2023-05-16T01:10:43;95085.31;;;17.68;100.00
12624;BME280;6377;42.836;23.998;2023-05-16T01:13:18;95191.97;;;18.27;100.00
12624;BME280;6377;42.836;23.998;2023-05-16T01:15:55;95200.28;;;17.91;100.00
12624;BME280;6377;42.836;23.998;2023-05-16T01:18:31;95165.91;;;17.60;100.00
12624;BME280;6377;42.836;23.998;2023-05-16T01:21:05;95176.25;;;17.56;100.00
12624;BME280;6377;42.836;23.998;2023-05-16T01:23:41;95084.44;;;16.93;100.00
12624;BME280;6377;42.836;23.998;2023-05-16T01:26:15;95106.63;;;16.93;100.00
12624;BME280;6377;42.836;23.998;2023-05-16T01:28:44;95168.09;;;17.16;100.00
12624;BME280;6377;42.836;23.998;2023-05-16T01:31:12;95164.31;;;16.94;100.00
12624;BME280;6377;42.836;23.998;2023-05-16T01:33:39;95172.31;;;16.83;100.00
12624;BME280;6377;42.836;23.998;2023-05-16T01:36:11;95109.91;;;16.54;100.00
12624;BME280;6377;42.836;23.998;2023-05-16T01:38:43;95147.69;;;16.80;100.00
12624;BME280;6377;42.836;23.998;2023-05-16T01:41:17;95142.59;;;16.79;100.00
12624;BME280;6377;42.836;23.998;2023-05-16T01:43:50;95165.97;;;16.95;100.00
12624;BME280;6377;42.836;23.998;2023-05-16T01:46:21;95169.91;;;16.93;100.00
12624;BME280;6377;42.836;23.998;2023-05-16T01:48:53;95138.97;;;16.85;100.00
12624;BME280;6377;42.836;23.998;2023-05-16T01:51:28;95141.19;;;16.88;100.00
12624;BME280;6377;42.836;23.998;2023-05-16T01:54:02;95122.28;;;16.78;100.00
12624;BME280;6377;42.836;23.998;2023-05-16T01:56:33;95121.34;;;16.72;100.00
12624;BME280;6377;42.836;23.998;2023-05-16T01:59:03;95101.81;;;16.60;100.00
12624;BME280;6377;42.836;23.998;2023-05-16T02:01:31;95110.41;;;16.86;100.00
12624;BME280;6377;42.836;23.998;2023-05-16T02:03:58;95122.63;;;16.82;100.00
12624;BME280;6377;42.836;23.998;2023-05-16T02:06:26;95099.72;;;16.74;100.00
12624;BME280;6377;42.836;23.998;2023-05-16T02:08:53;95120.28;;;16.73;100.00
12624;BME280;6377;42.836;23.998;2023-05-16T02:11:20;95109.81;;;16.60;100.00
12624;BME280;6377;42.836;23.998;2023-05-16T02:13:49;95156.19;;;16.89;100.00
12624;BME280;6377;42.836;23.998;2023-05-16T02:16:16;95136.91;;;16.75;100.00
12624;BME280;6377;42.836;23.998;2023-05-16T02:18:43;95107.81;;;16.56;100.00
12624;BME280;6377;42.836;23.998;2023-05-16T02:21:11;95131.28;;;16.65;100.00
12624;BME280;6377;42.836;23.998;2023-05-16T02:23:38;95132.41;;;16.88;100.00
12624;BME280;6377;42.836;23.998;2023-05-16T02:26:06;95139.69;;;16.92;100.00
12624;BME280;6377;42.836;23.998;2023-05-16T02:28:33;95074.81;;;16.50;100.00
12624;BME280;6377;42.836;23.998;2023-05-16T02:31:02;95140.97;;;16.90;100.00
12624;BME280;6377;42.836;23.998;2023-05-16T02:33:29;95115.53;;;16.75;100.00
12624;BME280;6377;42.836;23.998;2023-05-16T02:35:57;95067.59;;;16.39;100.00
12624;BME280;6377;42.836;23.998;2023-05-16T02:38:24;95094.41;;;16.44;100.00
12624;BME280;6377;42.836;23.998;2023-05-16T02:40:51;95082.34;;;16.42;100.00
12624;BME280;6377;42.836;23.998;2023-05-16T02:43:18;95114.00;;;16.79;100.00
12624;BME280;6377;42.836;23.998;2023-05-16T02:45:46;95098.81;;;16.39;100.00
12624;BME280;6377;42.836;23.998;2023-05-16T02:48:14;95048.78;;;16.22;100.00
12624;BME280;6377;42.836;23.998;2023-05-16T02:50:42;95134.66;;;16.61;100.00
12624;BME280;6377;42.836;23.998;2023-05-16T02:53:09;95121.09;;;16.44;100.00
12624;BME280;6377;42.836;23.998;2023-05-16T02:55:36;95144.16;;;16.57;100.00
12624;BME280;6377;42.836;23.998;2023-05-16T02:58:04;95111.56;;;16.37;100.00
12624;BME280;6377;42.836;23.998;2023-05-16T03:00:31;95124.72;;;16.50;100.00
12624;BME280;6377;42.836;23.998;2023-05-16T03:02:58;95092.53;;;16.33;100.00
12624;BME280;6377;42.836;23.998;2023-05-16T03:05:27;95103.56;;;16.37;100.00
12624;BME280;6377;42.836;23.998;2023-05-16T03:07:54;95102.75;;;16.36;100.00
12624;BME280;6377;42.836;23.998;2023-05-16T03:10:22;95126.31;;;16.39;100.00
12624;BME280;6377;42.836;23.998;2023-05-16T03:12:49;95128.91;;;16.46;100.00
12624;BME280;6377;42.836;23.998;2023-05-16T03:15:16;95100.28;;;16.23;100.00
12624;BME280;6377;42.836;23.998;2023-05-16T03:17:43;95116.34;;;16.35;100.00
12624;BME280;6377;42.836;23.998;2023-05-16T03:20:11;95119.41;;;16.20;100.00
12624;BME280;6377;42.836;23.998;2023-05-16T03:22:40;95073.16;;;15.96;100.00
12624;BME280;6377;42.836;23.998;2023-05-16T03:25:09;95129.72;;;16.16;100.00
12624;BME280;6377;42.836;23.998;2023-05-16T03:27:37;95111.31;;;15.97;100.00
12624;BME280;6377;42.836;23.998;2023-05-16T03:30:05;95161.25;;;16.38;100.00
12624;BME280;6377;42.836;23.998;2023-05-16T03:32:33;95105.91;;;16.15;100.00
12624;BME280;6377;42.836;23.998;2023-05-16T03:35:00;95122.81;;;16.39;100.00
12624;BME280;6377;42.836;23.998;2023-05-16T03:37:28;95150.47;;;16.44;100.00
12624;BME280;6377;42.836;23.998;2023-05-16T03:39:56;95134.81;;;16.48;100.00
12624;BME280;6377;42.836;23.998;2023-05-16T03:42:24;95103.06;;;16.28;100.00
12624;BME280;6377;42.836;23.998;2023-05-16T03:44:51;95080.69;;;16.29;100.00
12624;BME280;6377;42.836;23.998;2023-05-16T03:47:18;95110.31;;;16.92;100.00
12624;BME280;6377;42.836;23.998;2023-05-16T03:49:45;95136.47;;;17.36;100.00
12624;BME280;6377;42.836;23.998;2023-05-16T03:52:12;95096.50;;;17.07;100.00
12624;BME280;6377;42.836;23.998;2023-05-16T03:54:40;95107.19;;;17.07;100.00
12624;BME280;6377;42.836;23.998;2023-05-16T03:57:08;95133.56;;;17.26;100.00
12624;BME280;6377;42.836;23.998;2023-05-16T03:59:35;95119.72;;;17.06;100.00
12624;BME280;6377;42.836;23.998;2023-05-16T04:02:05;95107.53;;;16.87;100.00
12624;BME280;6377;42.836;23.998;2023-05-16T04:04:32;95137.16;;;16.97;100.00
12624;BME280;6377;42.836;23.998;2023-05-16T04:07:00;95127.16;;;16.93;100.00
12624;BME280;6377;42.836;23.998;2023-05-16T04:09:27;95084.16;;;16.71;100.00
12624;BME280;6377;42.836;23.998;2023-05-16T04:11:55;95150.75;;;17.07;100.00
12624;BME280;6377;42.836;23.998;2023-05-16T04:14:25;95158.66;;;16.91;100.00
12624;BME280;6377;42.836;23.998;2023-05-16T04:16:52;95116.66;;;16.68;100.00
12624;BME280;6377;42.836;23.998;2023-05-16T04:19:19;95140.59;;;16.74;100.00
12624;BME280;6377;42.836;23.998;2023-05-16T04:21:46;95133.63;;;16.73;100.00
12624;BME280;6377;42.836;23.998;2023-05-16T04:24:14;95126.41;;;16.62;100.00
12624;BME280;6377;42.836;23.998;2023-05-16T04:26:41;95097.97;;;16.38;100.00
12624;BME280;6377;42.836;23.998;2023-05-16T04:29:08;95177.88;;;16.69;100.00
12624;BME280;6377;42.836;23.998;2023-05-16T04:31:37;95118.19;;;16.34;100.00
12624;BME280;6377;42.836;23.998;2023-05-16T04:34:04;95108.63;;;16.26;100.00
12624;BME280;6377;42.836;23.998;2023-05-16T04:36:32;95126.22;;;16.46;100.00
12624;BME280;6377;42.836;23.998;2023-05-16T04:39:00;95109.34;;;16.34;100.00
12624;BME280;6377;42.836;23.998;2023-05-16T04:41:27;95143.69;;;16.60;100.00
12624;BME280;6377;42.836;23.998;2023-05-16T04:43:55;95148.34;;;16.64;100.00
12624;BME280;6377;42.836;23.998;2023-05-16T04:46:22;95127.63;;;16.48;100.00
12624;BME280;6377;42.836;23.998;2023-05-16T04:48:50;95179.28;;;16.84;100.00
12624;BME280;6377;42.836;23.998;2023-05-16T04:51:18;95150.25;;;16.75;100.00
12624;BME280;6377;42.836;23.998;2023-05-16T04:53:45;95153.50;;;16.77;100.00
12624;BME280;6377;42.836;23.998;2023-05-16T04:56:12;95072.31;;;16.25;100.00
12624;BME280;6377;42.836;23.998;2023-05-16T04:58:39;95150.38;;;16.80;100.00
12624;BME280;6377;42.836;23.998;2023-05-16T05:01:06;95122.03;;;16.50;100.00
12624;BME280;6377;42.836;23.998;2023-05-16T05:03:33;95159.41;;;16.79;100.00
12624;BME280;6377;42.836;23.998;2023-05-16T05:06:02;95139.31;;;16.65;100.00
12624;BME280;6377;42.836;23.998;2023-05-16T05:08:30;95161.63;;;16.83;100.00
12624;BME280;6377;42.836;23.998;2023-05-16T05:10:57;95148.88;;;16.85;100.00
12624;BME280;6377;42.836;23.998;2023-05-16T05:13:24;95192.34;;;17.15;100.00
12624;BME280;6377;42.836;23.998;2023-05-16T05:15:52;95193.63;;;17.12;100.00
12624;BME280;6377;42.836;23.998;2023-05-16T05:18:19;95201.44;;;17.14;100.00
12624;BME280;6377;42.836;23.998;2023-05-16T05:20:46;95202.47;;;17.13;100.00
12624;BME280;6377;42.836;23.998;2023-05-16T05:23:15;95204.44;;;17.17;100.00
12624;BME280;6377;42.836;23.998;2023-05-16T05:25:42;95209.09;;;17.22;100.00
12624;BME280;6377;42.836;23.998;2023-05-16T05:28:09;95204.13;;;17.25;100.00
12624;BME280;6377;42.836;23.998;2023-05-16T05:30:37;95211.88;;;17.27;100.00
12624;BME280;6377;42.836;23.998;2023-05-16T05:33:04;95214.91;;;17.30;100.00
12624;BME280;6377;42.836;23.998;2023-05-16T05:35:31;95210.97;;;17.33;100.00
12624;BME280;6377;42.836;23.998;2023-05-16T05:37:58;95215.84;;;17.36;100.00
12624;BME280;6377;42.836;23.998;2023-05-16T05:40:27;95219.81;;;17.33;100.00
12624;BME280;6377;42.836;23.998;2023-05-16T05:42:54;95209.78;;;17.29;100.00
12624;BME280;6377;42.836;23.998;2023-05-16T05:45:22;95224.34;;;17.33;100.00
12624;BME280;6377;42.836;23.998;2023-05-16T05:47:49;95225.25;;;17.27;100.00
12624;BME280;6377;42.836;23.998;2023-05-16T05:50:16;95191.66;;;17.08;100.00
12624;BME280;6377;42.836;23.998;2023-05-16T05:52:43;95224.59;;;17.31;100.00
12624;BME280;6377;42.836;23.998;2023-05-16T05:55:11;95219.69;;;17.28;100.00
12624;BME280;6377;42.836;23.998;2023-05-16T05:57:39;95221.44;;;17.34;100.00
12624;BME280;6377;42.836;23.998;2023-05-16T06:00:07;95212.47;;;17.29;100.00
12624;BME280;6377;42.836;23.998;2023-05-16T06:02:36;95183.75;;;17.13;100.00
12624;BME280;6377;42.836;23.998;2023-05-16T06:05:04;95225.88;;;17.41;100.00
12624;BME280;6377;42.836;23.998;2023-05-16T06:07:31;95233.06;;;17.52;100.00
12624;BME280;6377;42.836;23.998;2023-05-16T06:09:58;95227.31;;;17.55;100.00
12624;BME280;6377;42.836;23.998;2023-05-16T06:12:29;95177.25;;;17.32;100.00
12624;BME280;6377;42.836;23.998;2023-05-16T06:14:57;95222.88;;;17.60;100.00
12624;BME280;6377;42.836;23.998;2023-05-16T06:17:24;95144.84;;;17.17;100.00
12624;BME280;6377;42.836;23.998;2023-05-16T06:19:52;95236.47;;;17.82;100.00
12624;BME280;6377;42.836;23.998;2023-05-16T06:22:19;95224.53;;;17.73;100.00
12624;BME280;6377;42.836;23.998;2023-05-16T06:24:46;95248.69;;;17.89;100.00
12624;BME280;6377;42.836;23.998;2023-05-16T06:27:13;95217.75;;;18.05;100.00
12624;BME280;6377;42.836;23.998;2023-05-16T06:29:41;95194.44;;;18.06;100.00
12624;BME280;6377;42.836;23.998;2023-05-16T06:32:09;95223.75;;;18.12;100.00
12624;BME280;6377;42.836;23.998;2023-05-16T06:34:37;95203.38;;;18.11;100.00
12624;BME280;6377;42.836;23.998;2023-05-16T06:37:04;95202.84;;;17.98;100.00
12624;BME280;6377;42.836;23.998;2023-05-16T06:39:32;95180.78;;;17.90;100.00
12624;BME280;6377;42.836;23.998;2023-05-16T06:41:59;95225.16;;;18.15;100.00
12624;BME280;6377;42.836;23.998;2023-05-16T06:44:26;95215.63;;;18.07;100.00
12624;BME280;6377;42.836;23.998;2023-05-16T06:46:53;95227.97;;;18.08;100.00
12624;BME280;6377;42.836;23.998;2023-05-16T06:49:22;95157.78;;;17.66;100.00
12624;BME280;6377;42.836;23.998;2023-05-16T06:51:49;95206.38;;;18.26;100.00
12624;BME280;6377;42.836;23.998;2023-05-16T06:54:17;95132.72;;;17.84;100.00
12624;BME280;6377;42.836;23.998;2023-05-16T06:56:44;95201.50;;;18.23;100.00
12624;BME280;6377;42.836;23.998;2023-05-16T06:59:11;95184.78;;;18.16;100.00
12624;BME280;6377;42.836;23.998;2023-05-16T07:01:39;95193.16;;;18.20;100.00
12624;BME280;6377;42.836;23.998;2023-05-16T07:04:06;95198.72;;;18.18;100.00
12624;BME280;6377;42.836;23.998;2023-05-16T07:06:35;95202.59;;;18.11;100.00
12624;BME280;6377;42.836;23.998;2023-05-16T07:09:02;95197.81;;;18.13;100.00
12624;BME280;6377;42.836;23.998;2023-05-16T07:11:29;95216.19;;;18.09;100.00
12624;BME280;6377;42.836;23.998;2023-05-16T07:13:56;95184.84;;;17.93;100.00
12624;BME280;6377;42.836;23.998;2023-05-16T07:16:24;95108.72;;;17.38;100.00
12624;BME280;6377;42.836;23.998;2023-05-16T07:18:53;95222.28;;;17.93;100.00
12624;BME280;6377;42.836;23.998;2023-05-16T07:21:20;95194.38;;;17.77;100.00
12624;BME280;6377;42.836;23.998;2023-05-16T07:23:49;95222.59;;;17.97;100.00
12624;BME280;6377;42.836;23.998;2023-05-16T07:26:16;95183.75;;;18.06;100.00
12624;BME280;6377;42.836;23.998;2023-05-16T07:28:43;95168.44;;;17.89;100.00
12624;BME280;6377;42.836;23.998;2023-05-16T07:31:11;95195.06;;;17.96;100.00
12624;BME280;6377;42.836;23.998;2023-05-16T07:33:38;95195.53;;;17.93;100.00
12624;BME280;6377;42.836;23.998;2023-05-16T07:36:06;95186.13;;;17.90;100.00
12624;BME280;6377;42.836;23.998;2023-05-16T07:38:33;95196.00;;;17.90;100.00
12624;BME280;6377;42.836;23.998;2023-05-16T07:41:02;95081.66;;;17.22;100.00
12624;BME280;6377;42.836;23.998;2023-05-16T07:43:29;95190.97;;;17.93;100.00
12624;BME280;6377;42.836;23.998;2023-05-16T07:46:00;95171.13;;;17.78;100.00
12624;BME280;6377;42.836;23.998;2023-05-16T07:48:27;95168.88;;;17.98;100.00
12624;BME280;6377;42.836;23.998;2023-05-16T07:50:54;95054.31;;;17.20;100.00
12624;BME280;6377;42.836;23.998;2023-05-16T07:53:22;95174.56;;;18.02;100.00
12624;BME280;6377;42.836;23.998;2023-05-16T07:55:49;95183.53;;;18.07;100.00
12624;BME280;6377;42.836;23.998;2023-05-16T07:58:18;95129.34;;;17.88;100.00
12624;BME280;6377;42.836;23.998;2023-05-16T08:00:45;95173.81;;;18.18;100.00
12624;BME280;6377;42.836;23.998;2023-05-16T08:03:13;95164.09;;;18.00;100.00
12624;BME280;6377;42.836;23.998;2023-05-16T08:05:40;95170.34;;;18.06;100.00
12624;BME280;6377;42.836;23.998;2023-05-16T08:08:07;95142.22;;;18.03;100.00
12624;BME280;6377;42.836;23.998;2023-05-16T08:10:34;95078.66;;;17.70;100.00
12624;BME280;6377;42.836;23.998;2023-05-16T08:13:02;95117.59;;;17.89;100.00
12624;BME280;6377;42.836;23.998;2023-05-16T08:15:31;95184.88;;;18.21;100.00
12624;BME280;6377;42.836;23.998;2023-05-16T08:17:58;95145.56;;;18.10;100.00
12624;BME280;6377;42.836;23.998;2023-05-16T08:20:26;95176.91;;;18.38;100.00
12624;BME280;6377;42.836;23.998;2023-05-16T08:22:53;95163.91;;;18.30;100.00
12624;BME280;6377;42.836;23.998;2023-05-16T08:25:21;95164.19;;;18.45;100.00
12624;BME280;6377;42.836;23.998;2023-05-16T08:27:49;95140.53;;;18.25;100.00
12624;BME280;6377;42.836;23.998;2023-05-16T08:30:16;95162.13;;;18.35;100.00
12624;BME280;6377;42.836;23.998;2023-05-16T08:32:45;95165.63;;;18.36;100.00
12624;BME280;6377;42.836;23.998;2023-05-16T08:35:13;95154.56;;;18.32;100.00
12624;BME280;6377;42.836;23.998;2023-05-16T08:37:40;95162.22;;;18.52;100.00
12624;BME280;6377;42.836;23.998;2023-05-16T08:40:08;95161.00;;;18.60;100.00
12624;BME280;6377;42.836;23.998;2023-05-16T08:42:36;95161.03;;;18.76;100.00
12624;BME280;6377;42.836;23.998;2023-05-16T08:45:04;95156.28;;;18.78;100.00
12624;BME280;6377;42.836;23.998;2023-05-16T08:47:32;95062.25;;;18.35;100.00
12624;BME280;6377;42.836;23.998;2023-05-16T08:50:04;95105.59;;;18.77;100.00
12624;BME280;6377;42.836;23.998;2023-05-16T08:52:35;95142.16;;;19.16;100.00
12624;BME280;6377;42.836;23.998;2023-05-16T08:55:05;95154.66;;;19.27;100.00
12624;BME280;6377;42.836;23.998;2023-05-16T08:57:34;95160.28;;;19.42;100.00
12624;BME280;6377;42.836;23.998;2023-05-16T09:00:02;95153.75;;;19.55;100.00
12624;BME280;6377;42.836;23.998;2023-05-16T09:02:35;95143.06;;;19.22;100.00
12624;BME280;6377;42.836;23.998;2023-05-16T09:05:05;95153.34;;;19.30;100.00
12624;BME280;6377;42.836;23.998;2023-05-16T09:07:34;95159.53;;;19.30;100.00
12624;BME280;6377;42.836;23.998;2023-05-16T09:10:01;95161.31;;;19.25;100.00
12624;BME280;6377;42.836;23.998;2023-05-16T09:12:31;95152.41;;;19.19;100.00
12624;BME280;6377;42.836;23.998;2023-05-16T09:14:59;95126.78;;;19.12;100.00
12624;BME280;6377;42.836;23.998;2023-05-16T09:17:33;95070.69;;;18.88;100.00
12624;BME280;6377;42.836;23.998;2023-05-16T09:20:09;95148.59;;;19.48;100.00
12624;BME280;6377;42.836;23.998;2023-05-16T09:22:37;95098.94;;;19.13;100.00
12624;BME280;6377;42.836;23.998;2023-05-16T09:25:06;95106.34;;;19.22;100.00
12624;BME280;6377;42.836;23.998;2023-05-16T09:27:33;95145.16;;;19.53;100.00
12624;BME280;6377;42.836;23.998;2023-05-16T09:30:01;95107.47;;;19.43;100.00
12624;BME280;6377;42.836;23.998;2023-05-16T09:32:30;95141.75;;;19.58;100.00
12624;BME280;6377;42.836;23.998;2023-05-16T09:34:57;95118.19;;;19.43;100.00
12624;BME280;6377;42.836;23.998;2023-05-16T09:37:26;95072.78;;;19.20;100.00
12624;BME280;6377;42.836;23.998;2023-05-16T09:39:54;95103.00;;;19.48;100.00
12624;BME280;6377;42.836;23.998;2023-05-16T09:42:21;95055.03;;;19.35;100.00
12624;BME280;6377;42.836;23.998;2023-05-16T09:44:50;95138.91;;;19.86;100.00
12624;BME280;6377;42.836;23.998;2023-05-16T09:47:19;95103.16;;;19.80;100.00
12624;BME280;6377;42.836;23.998;2023-05-16T09:49:50;95055.66;;;19.59;100.00
12624;BME280;6377;42.836;23.998;2023-05-16T09:52:18;95067.19;;;19.60;100.00
12624;BME280;6377;42.836;23.998;2023-05-16T09:54:47;95094.00;;;19.60;100.00
12624;BME280;6377;42.836;23.998;2023-05-16T09:57:17;95076.16;;;19.48;100.00
12624;BME280;6377;42.836;23.998;2023-05-16T09:59:45;95071.53;;;19.27;100.00
12624;BME280;6377;42.836;23.998;2023-05-16T10:02:12;95141.75;;;19.58;100.00
12624;BME280;6377;42.836;23.998;2023-05-16T10:04:41;95074.06;;;19.17;100.00
12624;BME280;6377;42.836;23.998;2023-05-16T10:07:09;95127.94;;;19.49;100.00
12624;BME280;6377;42.836;23.998;2023-05-16T10:09:38;95139.22;;;19.51;100.00
12624;BME280;6377;42.836;23.998;2023-05-16T10:12:09;95135.63;;;19.62;100.00
12624;BME280;6377;42.836;23.998;2023-05-16T10:14:40;95145.81;;;19.60;100.00
12624;BME280;6377;42.836;23.998;2023-05-16T10:17:11;95149.03;;;19.62;100.00
12624;BME280;6377;42.836;23.998;2023-05-16T10:19:41;95144.72;;;19.61;100.00
12624;BME280;6377;42.836;23.998;2023-05-16T10:22:09;95149.69;;;19.52;100.00
12624;BME280;6377;42.836;23.998;2023-05-16T10:24:43;95141.03;;;19.45;100.00
12624;BME280;6377;42.836;23.998;2023-05-16T10:27:14;95145.81;;;19.43;100.00
12624;BME280;6377;42.836;23.998;2023-05-16T10:29:42;95142.41;;;19.48;100.00
12624;BME280;6377;42.836;23.998;2023-05-16T10:32:10;95127.34;;;19.47;100.00
12624;BME280;6377;42.836;23.998;2023-05-16T10:34:39;95115.16;;;19.56;100.00
12624;BME280;6377;42.836;23.998;2023-05-16T10:37:08;95094.75;;;19.55;100.00
12624;BME280;6377;42.836;23.998;2023-05-16T10:39:37;95109.38;;;19.86;100.00
12624;BME280;6377;42.836;23.998;2023-05-16T10:42:05;95080.16;;;19.68;100.00
12624;BME280;6377;42.836;23.998;2023-05-16T10:44:38;95111.25;;;20.07;100.00
12624;BME280;6377;42.836;23.998;2023-05-16T10:47:05;95094.34;;;20.06;100.00
12624;BME280;6377;42.836;23.998;2023-05-16T10:49:33;95111.94;;;20.41;100.00
12624;BME280;6377;42.836;23.998;2023-05-16T10:52:06;95002.53;;;19.83;100.00
12624;BME280;6377;42.836;23.998;2023-05-16T10:54:35;95073.31;;;20.47;100.00
12624;BME280;6377;42.836;23.998;2023-05-16T10:57:08;95053.09;;;20.66;100.00
12624;BME280;6377;42.836;23.998;2023-05-16T10:59:42;95000.22;;;20.45;100.00
12624;BME280;6377;42.836;23.998;2023-05-16T11:02:24;95031.56;;;20.98;100.00
12624;BME280;6377;42.836;23.998;2023-05-16T11:04:53;95064.41;;;21.42;100.00
12624;BME280;6377;42.836;23.998;2023-05-16T11:07:22;95051.34;;;21.60;100.00
12624;BME280;6377;42.836;23.998;2023-05-16T11:10:02;95054.94;;;21.86;100.00
12624;BME280;6377;42.836;23.998;2023-05-16T11:12:37;95069.06;;;22.08;100.00
12624;BME280;6377;42.836;23.998;2023-05-16T11:15:21;95062.66;;;22.34;100.00
12624;BME280;6377;42.836;23.998;2023-05-16T11:17:49;95060.53;;;22.52;100.00
12624;BME280;6377;42.836;23.998;2023-05-16T11:20:26;95062.19;;;22.63;100.00
12624;BME280;6377;42.836;23.998;2023-05-16T11:23:21;95082.97;;;22.87;100.00
12624;BME280;6377;42.836;23.998;2023-05-16T11:25:52;95085.41;;;22.79;100.00
12624;BME280;6377;42.836;23.998;2023-05-16T11:28:20;95045.44;;;22.46;100.00
12624;BME280;6377;42.836;23.998;2023-05-16T11:30:52;95073.19;;;22.36;100.00
12624;BME280;6377;42.836;23.998;2023-05-16T11:33:22;95072.31;;;22.10;100.00
12624;BME280;6377;42.836;23.998;2023-05-16T11:36:05;95069.56;;;21.95;100.00
12624;BME280;6377;42.836;23.998;2023-05-16T11:38:33;95066.09;;;21.58;100.00
12624;BME280;6377;42.836;23.998;2023-05-16T11:41:05;95076.00;;;21.42;100.00
12624;BME280;6377;42.836;23.998;2023-05-16T11:43:39;95078.09;;;21.40;100.00
12624;BME280;6377;42.836;23.998;2023-05-16T11:46:11;95074.81;;;21.28;100.00
12624;BME280;6377;42.836;23.998;2023-05-16T11:48:39;95089.66;;;21.36;100.00
12624;BME280;6377;42.836;23.998;2023-05-16T11:51:06;95069.44;;;21.28;100.00
12624;BME280;6377;42.836;23.998;2023-05-16T11:53:35;95096.66;;;21.37;100.00
12624;BME280;6377;42.836;23.998;2023-05-16T11:56:03;95084.09;;;21.47;100.00
12624;BME280;6377;42.836;23.998;2023-05-16T11:58:30;95081.41;;;21.52;100.00
12624;BME280;6377;42.836;23.998;2023-05-16T12:00:57;95079.22;;;21.44;100.00
12624;BME280;6377;42.836;23.998;2023-05-16T12:03:26;95077.06;;;21.46;100.00
12624;BME280;6377;42.836;23.998;2023-05-16T12:05:54;95034.09;;;21.14;100.00
12624;BME280;6377;42.836;23.998;2023-05-16T12:08:23;95078.94;;;21.41;100.00
12624;BME280;6377;42.836;23.998;2023-05-16T12:10:51;95080.78;;;21.35;100.00
12624;BME280;6377;42.836;23.998;2023-05-16T12:13:20;95067.53;;;21.23;100.00
12624;BME280;6377;42.836;23.998;2023-05-16T12:15:49;95082.63;;;21.30;100.00
12624;BME280;6377;42.836;23.998;2023-05-16T12:18:17;95078.38;;;21.39;100.00
12624;BME280;6377;42.836;23.998;2023-05-16T12:20:47;95062.97;;;21.24;100.00
12624;BME280;6377;42.836;23.998;2023-05-16T12:23:15;95007.25;;;20.83;100.00
12624;BME280;6377;42.836;23.998;2023-05-16T12:25:44;95075.34;;;21.25;100.00
12624;BME280;6377;42.836;23.998;2023-05-16T12:28:13;95085.63;;;21.38;100.00
12624;BME280;6377;42.836;23.998;2023-05-16T12:30:42;95042.69;;;21.11;100.00
12624;BME280;6377;42.836;23.998;2023-05-16T12:33:12;95094.56;;;21.49;100.00
12624;BME280;6377;42.836;23.998;2023-05-16T12:35:41;95078.09;;;21.35;100.00
12624;BME280;6377;42.836;23.998;2023-05-16T12:38:12;95092.69;;;21.49;100.00
12624;BME280;6377;42.836;23.998;2023-05-16T12:40:40;95094.91;;;21.57;100.00
12624;BME280;6377;42.836;23.998;2023-05-16T12:43:12;95093.91;;;21.73;100.00
12624;BME280;6377;42.836;23.998;2023-05-16T12:45:40;94978.63;;;21.45;100.00
12624;BME280;6377;42.836;23.998;2023-05-16T12:48:11;95076.72;;;22.62;100.00
12624;BME280;6377;42.836;23.998;2023-05-16T12:50:39;95043.56;;;22.61;100.00
12624;BME280;6377;42.836;23.998;2023-05-16T12:53:11;95050.28;;;22.33;100.00
12624;BME280;6377;42.836;23.998;2023-05-16T12:55:39;95027.34;;;21.54;100.00
12624;BME280;6377;42.836;23.998;2023-05-16T12:58:07;94991.16;;;21.30;100.00